sensor_id;sensor_type;location;lat;lon;timestamp;temperature;humidity
13436;DHT22;6790;49.520;8.504;2022-11-20T00:01:18;3.90;99.90
13436;DHT22;6790;49.520;8.504;2022-11-20T00:03:46;4.10;99.90
13436;DHT22;6790;49.520;8.504;2022-11-20T00:06:14;4.30;99.90
13436;DHT22;6790;49.520;8.504;2022-11-20T00:08:41;4.10;99.90
13436;DHT22;6790;49.520;8.504;2022-11-20T00:11:12;3.90;99.90
13436;DHT22;6790;49.520;8.504;2022-11-20T00:13:39;4.20;99.90
13436;DHT22;6790;49.520;8.504;2022-11-20T00:16:07;4.30;99.90
13436;DHT22;6790;49.520;8.504;2022-11-20T00:18:34;4.20;99.90
13436;DHT22;6790;49.520;8.504;2022-11-20T00:21:06;4.10;99.90
13436;DHT22;6790;49.520;8.504;2022-11-20T00:23:33;3.90;99.90
13436;DHT22;6790;49.520;8.504;2022-11-20T00:26:18;4.10;99.90
13436;DHT22;6790;49.520;8.504;2022-11-20T00:28:53;4.00;99.90
13436;DHT22;6790;49.520;8.504;2022-11-20T00:31:23;4.20;99.90
13436;DHT22;6790;49.520;8.504;2022-11-20T00:33:49;4.20;99.90
13436;DHT22;6790;49.520;8.504;2022-11-20T00:36:21;3.90;99.90
13436;DHT22;6790;49.520;8.504;2022-11-20T00:38:55;4.00;99.90
13436;DHT22;6790;49.520;8.504;2022-11-20T00:41:23;4.20;99.90
13436;DHT22;6790;49.520;8.504;2022-11-20T00:43:52;4.30;99.90
13436;DHT22;6790;49.520;8.504;2022-11-20T00:46:21;4.00;99.90
13436;DHT22;6790;49.520;8.504;2022-11-20T00:48:48;4.20;99.90
13436;DHT22;6790;49.520;8.504;2022-11-20T00:51:16;4.20;99.90
13436;DHT22;6790;49.520;8.504;2022-11-20T00:53:45;4.10;99.90
13436;DHT22;6790;49.520;8.504;2022-11-20T00:56:15;4.20;99.90
13436;DHT22;6790;49.520;8.504;2022-11-20T00:58:44;4.40;99.90
13436;DHT22;6790;49.520;8.504;2022-11-20T01:01:16;4.20;99.90
13436;DHT22;6790;49.520;8.504;2022-11-20T01:03:47;4.20;99.90
13436;DHT22;6790;49.520;8.504;2022-11-20T01:06:27;4.30;99.90
13436;DHT22;6790;49.520;8.504;2022-11-20T01:08:59;4.20;99.90
13436;DHT22;6790;49.520;8.504;2022-11-20T01:11:29;4.10;99.90
13436;DHT22;6790;49.520;8.504;2022-11-20T01:13:58;4.30;99.90
13436;DHT22;6790;49.520;8.504;2022-11-20T01:16:28;4.40;99.90
13436;DHT22;6790;49.520;8.504;2022-11-20T01:18:58;4.50;99.90
13436;DHT22;6790;49.520;8.504;2022-11-20T01:21:36;4.20;99.90
13436;DHT22;6790;49.520;8.504;2022-11-20T01:24:06;4.30;99.90
13436;DHT22;6790;49.520;8.504;2022-11-20T01:26:35;4.30;99.90
13436;DHT22;6790;49.520;8.504;2022-11-20T01:29:02;4.30;99.90
13436;DHT22;6790;49.520;8.504;2022-11-20T01:31:34;4.10;99.90
13436;DHT22;6790;49.520;8.504;2022-11-20T01:34:03;4.10;99.90
13436;DHT22;6790;49.520;8.504;2022-11-20T01:36:35;4.10;99.90
13436;DHT22;6790;49.520;8.504;2022-11-20T01:39:05;4.30;99.90
13436;DHT22;6790;49.520;8.504;2022-11-20T01:41:34;4.30;99.90
13436;DHT22;6790;49.520;8.504;2022-11-20T01:44:22;4.10;99.90
13436;DHT22;6790;49.520;8.504;2022-11-20T01:47:07;4.00;99.90
13436;DHT22;6790;49.520;8.504;2022-11-20T01:49:44;4.20;99.90
13436;DHT22;6790;49.520;8.504;2022-11-20T01:52:20;4.30;99.90
13436;DHT22;6790;49.520;8.504;2022-11-20T01:54:53;4.30;99.90
13436;DHT22;6790;49.520;8.504;2022-11-20T01:57:23;4.30;99.90
13436;DHT22;6790;49.520;8.504;2022-11-20T01:59:54;4.10;99.90
13436;DHT22;6790;49.520;8.504;2022-11-20T02:02:23;4.00;99.90
13436;DHT22;6790;49.520;8.504;2022-11-20T02:04:51;4.10;99.90
13436;DHT22;6790;49.520;8.504;2022-11-20T02:07:20;3.90;99.90
13436;DHT22;6790;49.520;8.504;2022-11-20T02:09:46;4.10;99.90
13436;DHT22;6790;49.520;8.504;2022-11-20T02:12:12;4.10;99.90
13436;DHT22;6790;49.520;8.504;2022-11-20T02:14:58;4.00;99.90
13436;DHT22;6790;49.520;8.504;2022-11-20T02:17:24;4.00;99.90
13436;DHT22;6790;49.520;8.504;2022-11-20T02:19:51;4.10;99.90
13436;DHT22;6790;49.520;8.504;2022-11-20T02:22:29;4.20;99.90
13436;DHT22;6790;49.520;8.504;2022-11-20T02:24:57;4.30;99.90
13436;DHT22;6790;49.520;8.504;2022-11-20T02:27:25;4.00;99.90
13436;DHT22;6790;49.520;8.504;2022-11-20T02:29:53;4.30;99.90
13436;DHT22;6790;49.520;8.504;2022-11-20T02:32:28;4.10;99.90
13436;DHT22;6790;49.520;8.504;2022-11-20T02:35:05;4.30;99.90
13436;DHT22;6790;49.520;8.504;2022-11-20T02:37:43;4.10;99.90
13436;DHT22;6790;49.520;8.504;2022-11-20T02:40:10;4.40;99.90
13436;DHT22;6790;49.520;8.504;2022-11-20T02:42:37;4.10;99.90
13436;DHT22;6790;49.520;8.504;2022-11-20T02:45:04;4.30;99.90
13436;DHT22;6790;49.520;8.504;2022-11-20T02:47:31;4.50;99.90
13436;DHT22;6790;49.520;8.504;2022-11-20T02:49:57;4.20;99.90
13436;DHT22;6790;49.520;8.504;2022-11-20T02:52:23;4.30;99.90
13436;DHT22;6790;49.520;8.504;2022-11-20T02:54:48;4.20;99.90
13436;DHT22;6790;49.520;8.504;2022-11-20T02:57:14;4.20;99.90
13436;DHT22;6790;49.520;8.504;2022-11-20T02:59:40;4.60;99.90
13436;DHT22;6790;49.520;8.504;2022-11-20T03:02:05;4.30;99.90
13436;DHT22;6790;49.520;8.504;2022-11-20T03:04:31;4.20;99.90
13436;DHT22;6790;49.520;8.504;2022-11-20T03:06:57;4.40;99.90
13436;DHT22;6790;49.520;8.504;2022-11-20T03:09:22;4.20;99.90
13436;DHT22;6790;49.520;8.504;2022-11-20T03:11:48;4.60;99.90
13436;DHT22;6790;49.520;8.504;2022-11-20T03:14:14;4.60;99.90
13436;DHT22;6790;49.520;8.504;2022-11-20T03:16:40;4.30;99.90
13436;DHT22;6790;49.520;8.504;2022-11-20T03:19:06;4.60;99.90
13436;DHT22;6790;49.520;8.504;2022-11-20T03:21:35;4.40;99.90
13436;DHT22;6790;49.520;8.504;2022-11-20T03:24:01;4.40;99.90
13436;DHT22;6790;49.520;8.504;2022-11-20T03:26:27;4.80;99.90
13436;DHT22;6790;49.520;8.504;2022-11-20T03:28:55;4.50;99.90
13436;DHT22;6790;49.520;8.504;2022-11-20T03:31:28;4.80;99.90
13436;DHT22;6790;49.520;8.504;2022-11-20T03:33:56;4.80;99.90
13436;DHT22;6790;49.520;8.504;2022-11-20T03:36:22;4.60;99.90
13436;DHT22;6790;49.520;8.504;2022-11-20T03:38:48;4.70;99.90
13436;DHT22;6790;49.520;8.504;2022-11-20T03:41:20;4.70;99.90
13436;DHT22;6790;49.520;8.504;2022-11-20T03:43:51;5.00;99.90
13436;DHT22;6790;49.520;8.504;2022-11-20T03:46:17;4.90;99.90
13436;DHT22;6790;49.520;8.504;2022-11-20T03:48:43;4.90;99.90
13436;DHT22;6790;49.520;8.504;2022-11-20T03:51:11;5.00;99.90
13436;DHT22;6790;49.520;8.504;2022-11-20T03:53:58;4.80;99.90
13436;DHT22;6790;49.520;8.504;2022-11-20T03:56:29;4.70;99.90
13436;DHT22;6790;49.520;8.504;2022-11-20T03:58:56;5.00;99.90
13436;DHT22;6790;49.520;8.504;2022-11-20T04:01:33;5.00;99.90
13436;DHT22;6790;49.520;8.504;2022-11-20T04:04:00;4.80;99.90
13436;DHT22;6790;49.520;8.504;2022-11-20T04:06:35;5.00;99.90
13436;DHT22;6790;49.520;8.504;2022-11-20T04:09:02;4.70;99.90
13436;DHT22;6790;49.520;8.504;2022-11-20T04:11:30;4.90;99.90
13436;DHT22;6790;49.520;8.504;2022-11-20T04:14:00;4.70;99.90
13436;DHT22;6790;49.520;8.504;2022-11-20T04:16:30;4.70;99.90
13436;DHT22;6790;49.520;8.504;2022-11-20T04:18:59;5.00;99.90
13436;DHT22;6790;49.520;8.504;2022-11-20T04:21:26;4.70;99.90
13436;DHT22;6790;49.520;8.504;2022-11-20T04:23:52;4.80;99.90
13436;DHT22;6790;49.520;8.504;2022-11-20T04:26:19;4.60;99.90
13436;DHT22;6790;49.520;8.504;2022-11-20T04:28:45;4.80;99.90
13436;DHT22;6790;49.520;8.504;2022-11-20T04:31:19;4.80;99.90
13436;DHT22;6790;49.520;8.504;2022-11-20T04:33:46;4.50;99.90
13436;DHT22;6790;49.520;8.504;2022-11-20T04:36:14;4.80;99.90
13436;DHT22;6790;49.520;8.504;2022-11-20T04:38:44;4.50;99.90
13436;DHT22;6790;49.520;8.504;2022-11-20T04:41:15;4.70;99.90
13436;DHT22;6790;49.520;8.504;2022-11-20T04:43:46;4.70;99.90
13436;DHT22;6790;49.520;8.504;2022-11-20T04:46:16;4.40;99.90
13436;DHT22;6790;49.520;8.504;2022-11-20T04:48:42;4.50;99.90
13436;DHT22;6790;49.520;8.504;2022-11-20T04:51:08;4.50;99.90
13436;DHT22;6790;49.520;8.504;2022-11-20T04:53:33;4.70;99.90
13436;DHT22;6790;49.520;8.504;2022-11-20T04:56:04;4.60;99.90
13436;DHT22;6790;49.520;8.504;2022-11-20T04:58:31;4.70;99.90
13436;DHT22;6790;49.520;8.504;2022-11-20T05:01:24;4.60;99.90
13436;DHT22;6790;49.520;8.504;2022-11-20T05:03:50;4.50;99.90
13436;DHT22;6790;49.520;8.504;2022-11-20T05:06:18;4.60;99.90
13436;DHT22;6790;49.520;8.504;2022-11-20T05:08:45;4.40;99.90
13436;DHT22;6790;49.520;8.504;2022-11-20T05:11:19;4.70;99.90
13436;DHT22;6790;49.520;8.504;2022-11-20T05:13:46;4.70;99.90
13436;DHT22;6790;49.520;8.504;2022-11-20T05:16:15;4.40;99.90
13436;DHT22;6790;49.520;8.504;2022-11-20T05:18:42;4.50;99.90
13436;DHT22;6790;49.520;8.504;2022-11-20T05:21:09;4.70;99.90
13436;DHT22;6790;49.520;8.504;2022-11-20T05:23:35;4.80;99.90
13436;DHT22;6790;49.520;8.504;2022-11-20T05:26:02;4.50;99.90
13436;DHT22;6790;49.520;8.504;2022-11-20T05:28:29;4.50;99.90
13436;DHT22;6790;49.520;8.504;2022-11-20T05:30:55;4.60;99.90
13436;DHT22;6790;49.520;8.504;2022-11-20T05:33:21;4.80;99.90
13436;DHT22;6790;49.520;8.504;2022-11-20T05:35:47;4.70;99.90
13436;DHT22;6790;49.520;8.504;2022-11-20T05:38:14;4.60;99.90
13436;DHT22;6790;49.520;8.504;2022-11-20T05:40:39;4.60;99.90
13436;DHT22;6790;49.520;8.504;2022-11-20T05:43:05;4.50;99.90
13436;DHT22;6790;49.520;8.504;2022-11-20T05:45:31;4.90;99.90
13436;DHT22;6790;49.520;8.504;2022-11-20T05:48:00;4.90;99.90
13436;DHT22;6790;49.520;8.504;2022-11-20T05:50:27;4.60;99.90
13436;DHT22;6790;49.520;8.504;2022-11-20T05:52:53;4.70;99.90
13436;DHT22;6790;49.520;8.504;2022-11-20T05:55:19;4.80;99.90
13436;DHT22;6790;49.520;8.504;2022-11-20T05:57:44;4.70;99.90
13436;DHT22;6790;49.520;8.504;2022-11-20T06:00:10;4.60;99.90
13436;DHT22;6790;49.520;8.504;2022-11-20T06:02:36;4.70;99.90
13436;DHT22;6790;49.520;8.504;2022-11-20T06:05:02;4.70;99.90
13436;DHT22;6790;49.520;8.504;2022-11-20T06:07:28;5.10;99.90
13436;DHT22;6790;49.520;8.504;2022-11-20T06:09:54;4.80;99.90
13436;DHT22;6790;49.520;8.504;2022-11-20T06:12:19;5.00;99.90
13436;DHT22;6790;49.520;8.504;2022-11-20T06:14:45;4.90;99.90
13436;DHT22;6790;49.520;8.504;2022-11-20T06:17:10;5.00;99.90
13436;DHT22;6790;49.520;8.504;2022-11-20T06:19:36;4.90;99.90
13436;DHT22;6790;49.520;8.504;2022-11-20T06:22:02;4.60;99.90
13436;DHT22;6790;49.520;8.504;2022-11-20T06:24:27;5.00;99.90
13436;DHT22;6790;49.520;8.504;2022-11-20T06:26:53;5.00;99.90
13436;DHT22;6790;49.520;8.504;2022-11-20T06:29:19;5.00;99.90
13436;DHT22;6790;49.520;8.504;2022-11-20T06:31:44;4.70;99.90
13436;DHT22;6790;49.520;8.504;2022-11-20T06:34:10;4.70;99.90
13436;DHT22;6790;49.520;8.504;2022-11-20T06:36:36;4.70;99.90
13436;DHT22;6790;49.520;8.504;2022-11-20T06:39:01;5.10;99.90
13436;DHT22;6790;49.520;8.504;2022-11-20T06:41:27;4.70;99.90
13436;DHT22;6790;49.520;8.504;2022-11-20T06:43:53;4.90;99.90
13436;DHT22;6790;49.520;8.504;2022-11-20T06:46:20;4.70;99.90
13436;DHT22;6790;49.520;8.504;2022-11-20T06:48:47;4.90;99.90
13436;DHT22;6790;49.520;8.504;2022-11-20T06:51:13;4.70;99.90
13436;DHT22;6790;49.520;8.504;2022-11-20T06:53:39;4.90;99.90
13436;DHT22;6790;49.520;8.504;2022-11-20T06:56:06;5.00;99.90
13436;DHT22;6790;49.520;8.504;2022-11-20T06:58:33;4.70;99.90
13436;DHT22;6790;49.520;8.504;2022-11-20T07:01:06;4.60;99.90
13436;DHT22;6790;49.520;8.504;2022-11-20T07:03:34;5.00;99.90
13436;DHT22;6790;49.520;8.504;2022-11-20T07:06:00;5.00;99.90
13436;DHT22;6790;49.520;8.504;2022-11-20T07:08:27;4.90;99.90
13436;DHT22;6790;49.520;8.504;2022-11-20T07:10:57;5.00;99.90
13436;DHT22;6790;49.520;8.504;2022-11-20T07:13:24;4.90;99.90
13436;DHT22;6790;49.520;8.504;2022-11-20T07:15:51;4.80;99.90
13436;DHT22;6790;49.520;8.504;2022-11-20T07:18:16;5.10;99.90
13436;DHT22;6790;49.520;8.504;2022-11-20T07:20:42;5.10;99.90
13436;DHT22;6790;49.520;8.504;2022-11-20T07:23:08;4.70;99.90
13436;DHT22;6790;49.520;8.504;2022-11-20T07:25:33;4.80;99.90
13436;DHT22;6790;49.520;8.504;2022-11-20T07:28:00;4.70;99.90
13436;DHT22;6790;49.520;8.504;2022-11-20T07:30:29;5.00;99.90
13436;DHT22;6790;49.520;8.504;2022-11-20T07:32:55;5.00;99.90
13436;DHT22;6790;49.520;8.504;2022-11-20T07:35:23;4.90;99.90
13436;DHT22;6790;49.520;8.504;2022-11-20T07:37:49;4.90;99.90
13436;DHT22;6790;49.520;8.504;2022-11-20T07:40:16;4.80;99.90
13436;DHT22;6790;49.520;8.504;2022-11-20T07:42:54;5.10;99.90
13436;DHT22;6790;49.520;8.504;2022-11-20T07:45:22;4.80;99.90
13436;DHT22;6790;49.520;8.504;2022-11-20T07:47:49;5.00;99.90
13436;DHT22;6790;49.520;8.504;2022-11-20T07:50:15;5.00;99.90
13436;DHT22;6790;49.520;8.504;2022-11-20T07:52:42;5.10;99.90
13436;DHT22;6790;49.520;8.504;2022-11-20T07:55:09;5.40;99.90
13436;DHT22;6790;49.520;8.504;2022-11-20T07:57:35;5.20;99.90
13436;DHT22;6790;49.520;8.504;2022-11-20T08:00:01;5.10;99.90
13436;DHT22;6790;49.520;8.504;2022-11-20T08:02:28;5.10;99.90
13436;DHT22;6790;49.520;8.504;2022-11-20T08:04:54;5.10;99.90
13436;DHT22;6790;49.520;8.504;2022-11-20T08:07:20;5.40;99.90
13436;DHT22;6790;49.520;8.504;2022-11-20T08:09:45;5.10;99.90
13436;DHT22;6790;49.520;8.504;2022-11-20T08:12:19;5.50;99.90
13436;DHT22;6790;49.520;8.504;2022-11-20T08:15:05;5.50;99.90
13436;DHT22;6790;49.520;8.504;2022-11-20T08:17:31;5.40;99.90
13436;DHT22;6790;49.520;8.504;2022-11-20T08:19:57;5.60;99.90
13436;DHT22;6790;49.520;8.504;2022-11-20T08:22:23;5.60;99.90
13436;DHT22;6790;49.520;8.504;2022-11-20T08:24:50;5.40;99.90
13436;DHT22;6790;49.520;8.504;2022-11-20T08:27:15;5.70;99.90
13436;DHT22;6790;49.520;8.504;2022-11-20T08:29:41;5.60;99.90
13436;DHT22;6790;49.520;8.504;2022-11-20T08:32:07;5.60;99.90
13436;DHT22;6790;49.520;8.504;2022-11-20T08:34:32;5.50;99.90
13436;DHT22;6790;49.520;8.504;2022-11-20T08:36:58;5.40;99.90
13436;DHT22;6790;49.520;8.504;2022-11-20T08:39:24;5.30;99.90
13436;DHT22;6790;49.520;8.504;2022-11-20T08:41:49;5.60;99.90
13436;DHT22;6790;49.520;8.504;2022-11-20T08:44:15;5.40;99.90
13436;DHT22;6790;49.520;8.504;2022-11-20T08:46:42;5.30;99.90
13436;DHT22;6790;49.520;8.504;2022-11-20T08:49:10;5.50;99.90
13436;DHT22;6790;49.520;8.504;2022-11-20T08:51:37;5.50;99.90
13436;DHT22;6790;49.520;8.504;2022-11-20T08:54:04;5.30;99.90
13436;DHT22;6790;49.520;8.504;2022-11-20T08:56:30;5.20;99.90
13436;DHT22;6790;49.520;8.504;2022-11-20T08:58:57;5.40;99.90
13436;DHT22;6790;49.520;8.504;2022-11-20T09:01:24;5.30;99.90
13436;DHT22;6790;49.520;8.504;2022-11-20T09:03:50;5.40;99.90
13436;DHT22;6790;49.520;8.504;2022-11-20T09:06:16;5.50;99.90
13436;DHT22;6790;49.520;8.504;2022-11-20T09:08:42;5.30;99.90
13436;DHT22;6790;49.520;8.504;2022-11-20T09:11:08;5.20;99.90
13436;DHT22;6790;49.520;8.504;2022-11-20T09:13:35;5.50;99.90
13436;DHT22;6790;49.520;8.504;2022-11-20T09:16:06;5.50;99.90
13436;DHT22;6790;49.520;8.504;2022-11-20T09:18:34;5.30;99.90
13436;DHT22;6790;49.520;8.504;2022-11-20T09:21:10;5.40;99.90
13436;DHT22;6790;49.520;8.504;2022-11-20T09:23:38;5.30;99.90
13436;DHT22;6790;49.520;8.504;2022-11-20T09:26:06;5.40;99.90
13436;DHT22;6790;49.520;8.504;2022-11-20T09:28:34;5.40;99.90
13436;DHT22;6790;49.520;8.504;2022-11-20T09:31:00;5.50;99.90
13436;DHT22;6790;49.520;8.504;2022-11-20T09:33:29;5.60;99.90
13436;DHT22;6790;49.520;8.504;2022-11-20T09:35:55;5.60;99.90
13436;DHT22;6790;49.520;8.504;2022-11-20T09:38:21;5.60;99.90
13436;DHT22;6790;49.520;8.504;2022-11-20T09:43:32;5.40;99.90
13436;DHT22;6790;49.520;8.504;2022-11-20T09:46:43;5.40;99.90
13436;DHT22;6790;49.520;8.504;2022-11-20T09:52:32;5.50;99.90
13436;DHT22;6790;49.520;8.504;2022-11-20T09:55:10;5.70;99.90
13436;DHT22;6790;49.520;8.504;2022-11-20T09:57:40;5.60;99.90
13436;DHT22;6790;49.520;8.504;2022-11-20T10:00:10;5.60;99.90
13436;DHT22;6790;49.520;8.504;2022-11-20T10:02:55;5.60;99.90
13436;DHT22;6790;49.520;8.504;2022-11-20T10:05:31;5.80;99.90
13436;DHT22;6790;49.520;8.504;2022-11-20T10:08:17;5.60;99.90
13436;DHT22;6790;49.520;8.504;2022-11-20T10:11:03;5.90;99.90
13436;DHT22;6790;49.520;8.504;2022-11-20T10:17:02;5.90;99.90
13436;DHT22;6790;49.520;8.504;2022-11-20T10:19:54;5.70;99.90
13436;DHT22;6790;49.520;8.504;2022-11-20T10:26:03;5.70;99.90
13436;DHT22;6790;49.520;8.504;2022-11-20T10:29:15;5.70;99.90
13436;DHT22;6790;49.520;8.504;2022-11-20T10:31:51;5.70;99.90
13436;DHT22;6790;49.520;8.504;2022-11-20T10:34:28;5.60;99.90
13436;DHT22;6790;49.520;8.504;2022-11-20T10:37:05;5.90;99.90
13436;DHT22;6790;49.520;8.504;2022-11-20T10:39:50;5.90;99.90
13436;DHT22;6790;49.520;8.504;2022-11-20T10:42:39;5.80;99.90
13436;DHT22;6790;49.520;8.504;2022-11-20T10:47:52;5.80;99.90
13436;DHT22;6790;49.520;8.504;2022-11-20T10:50:21;5.70;99.90
13436;DHT22;6790;49.520;8.504;2022-11-20T10:53:15;6.00;99.90
13436;DHT22;6790;49.520;8.504;2022-11-20T10:56:00;6.10;99.90
13436;DHT22;6790;49.520;8.504;2022-11-20T10:58:45;6.30;99.90
13436;DHT22;6790;49.520;8.504;2022-11-20T11:01:20;6.10;99.90
13436;DHT22;6790;49.520;8.504;2022-11-20T11:03:50;6.00;99.90
13436;DHT22;6790;49.520;8.504;2022-11-20T11:06:39;6.20;99.90
13436;DHT22;6790;49.520;8.504;2022-11-20T11:09:17;6.10;99.90
13436;DHT22;6790;49.520;8.504;2022-11-20T11:11:46;6.50;99.90
13436;DHT22;6790;49.520;8.504;2022-11-20T11:14:14;6.20;99.90
13436;DHT22;6790;49.520;8.504;2022-11-20T11:16:51;6.60;99.90
13436;DHT22;6790;49.520;8.504;2022-11-20T11:19:18;6.60;99.90
13436;DHT22;6790;49.520;8.504;2022-11-20T11:21:47;6.80;99.90
13436;DHT22;6790;49.520;8.504;2022-11-20T11:24:26;6.70;99.90
13436;DHT22;6790;49.520;8.504;2022-11-20T11:26:57;6.70;99.90
13436;DHT22;6790;49.520;8.504;2022-11-20T11:29:32;6.70;99.90
13436;DHT22;6790;49.520;8.504;2022-11-20T11:32:14;7.00;99.90
13436;DHT22;6790;49.520;8.504;2022-11-20T11:35:18;7.00;99.90
13436;DHT22;6790;49.520;8.504;2022-11-20T11:37:46;6.80;99.90
13436;DHT22;6790;49.520;8.504;2022-11-20T11:40:13;7.10;99.90
13436;DHT22;6790;49.520;8.504;2022-11-20T11:42:44;7.20;99.90
13436;DHT22;6790;49.520;8.504;2022-11-20T11:45:23;7.10;99.90
13436;DHT22;6790;49.520;8.504;2022-11-20T11:47:51;7.40;99.90
13436;DHT22;6790;49.520;8.504;2022-11-20T11:50:19;7.30;99.90
13436;DHT22;6790;49.520;8.504;2022-11-20T11:53:12;7.50;99.90
13436;DHT22;6790;49.520;8.504;2022-11-20T11:55:58;7.40;99.90
13436;DHT22;6790;49.520;8.504;2022-11-20T11:58:47;7.40;99.90
13436;DHT22;6790;49.520;8.504;2022-11-20T12:01:37;7.60;99.90
13436;DHT22;6790;49.520;8.504;2022-11-20T12:04:44;7.40;99.90
13436;DHT22;6790;49.520;8.504;2022-11-20T12:07:20;7.70;99.90
13436;DHT22;6790;49.520;8.504;2022-11-20T12:09:54;7.70;99.90
13436;DHT22;6790;49.520;8.504;2022-11-20T12:12:42;7.70;99.90
13436;DHT22;6790;49.520;8.504;2022-11-20T12:15:16;7.80;99.90
13436;DHT22;6790;49.520;8.504;2022-11-20T12:17:49;7.80;99.90
13436;DHT22;6790;49.520;8.504;2022-11-20T12:20:15;7.90;99.90
13436;DHT22;6790;49.520;8.504;2022-11-20T12:22:56;8.00;99.90
13436;DHT22;6790;49.520;8.504;2022-11-20T12:25:48;8.00;99.90
13436;DHT22;6790;49.520;8.504;2022-11-20T12:34:18;7.80;99.90
13436;DHT22;6790;49.520;8.504;2022-11-20T12:37:12;8.00;99.90
13436;DHT22;6790;49.520;8.504;2022-11-20T12:39:50;8.00;99.90
13436;DHT22;6790;49.520;8.504;2022-11-20T12:56:53;8.00;99.90
13436;DHT22;6790;49.520;8.504;2022-11-20T13:00:24;8.00;99.90
13436;DHT22;6790;49.520;8.504;2022-11-20T13:03:06;7.90;99.90
13436;DHT22;6790;49.520;8.504;2022-11-20T13:05:51;7.80;99.90
13436;DHT22;6790;49.520;8.504;2022-11-20T13:08:24;8.00;99.90
13436;DHT22;6790;49.520;8.504;2022-11-20T13:19:13;7.90;99.90
13436;DHT22;6790;49.520;8.504;2022-11-20T13:21:43;8.00;99.90
13436;DHT22;6790;49.520;8.504;2022-11-20T13:24:22;8.10;99.90
13436;DHT22;6790;49.520;8.504;2022-11-20T13:29:35;8.20;99.90
13436;DHT22;6790;49.520;8.504;2022-11-20T13:32:05;8.10;99.90
13436;DHT22;6790;49.520;8.504;2022-11-20T13:34:37;8.20;99.90
13436;DHT22;6790;49.520;8.504;2022-11-20T13:37:03;8.40;99.90
13436;DHT22;6790;49.520;8.504;2022-11-20T13:39:34;8.50;99.90
13436;DHT22;6790;49.520;8.504;2022-11-20T13:42:23;8.50;99.90
13436;DHT22;6790;49.520;8.504;2022-11-20T13:45:01;8.80;99.90
13436;DHT22;6790;49.520;8.504;2022-11-20T13:47:28;8.70;99.90
13436;DHT22;6790;49.520;8.504;2022-11-20T13:49:58;8.90;99.90
13436;DHT22;6790;49.520;8.504;2022-11-20T13:55:40;9.00;99.90
13436;DHT22;6790;49.520;8.504;2022-11-20T14:01:33;9.00;99.90
13436;DHT22;6790;49.520;8.504;2022-11-20T14:04:06;9.10;99.90
13436;DHT22;6790;49.520;8.504;2022-11-20T14:06:42;9.00;99.90
13436;DHT22;6790;49.520;8.504;2022-11-20T14:09:12;9.00;99.90
13436;DHT22;6790;49.520;8.504;2022-11-20T14:11:46;9.00;99.90
13436;DHT22;6790;49.520;8.504;2022-11-20T14:14:18;8.90;99.90
13436;DHT22;6790;49.520;8.504;2022-11-20T14:16:47;9.00;99.90
13436;DHT22;6790;49.520;8.504;2022-11-20T14:22:38;8.80;99.90
13436;DHT22;6790;49.520;8.504;2022-11-20T14:24:48;8.80;99.90
13436;DHT22;6790;49.520;8.504;2022-11-20T14:27:16;8.70;99.90
13436;DHT22;6790;49.520;8.504;2022-11-20T14:29:46;8.70;99.90
13436;DHT22;6790;49.520;8.504;2022-11-20T14:32:16;8.60;99.90
13436;DHT22;6790;49.520;8.504;2022-11-20T14:34:45;8.50;99.90
13436;DHT22;6790;49.520;8.504;2022-11-20T14:37:23;8.50;99.90
13436;DHT22;6790;49.520;8.504;2022-11-20T14:39:54;8.50;99.90
13436;DHT22;6790;49.520;8.504;2022-11-20T14:42:23;8.40;99.90
13436;DHT22;6790;49.520;8.504;2022-11-20T14:44:52;8.30;99.90
13436;DHT22;6790;49.520;8.504;2022-11-20T14:47:23;8.30;99.90
13436;DHT22;6790;49.520;8.504;2022-11-20T14:49:52;8.30;99.90
13436;DHT22;6790;49.520;8.504;2022-11-20T14:52:21;8.30;99.90
13436;DHT22;6790;49.520;8.504;2022-11-20T14:57:26;8.10;99.90
13436;DHT22;6790;49.520;8.504;2022-11-20T15:02:48;8.10;99.90
13436;DHT22;6790;49.520;8.504;2022-11-20T15:05:17;8.20;99.90
13436;DHT22;6790;49.520;8.504;2022-11-20T15:07:47;8.20;99.90
13436;DHT22;6790;49.520;8.504;2022-11-20T15:10:26;8.10;99.90
13436;DHT22;6790;49.520;8.504;2022-11-20T15:18:13;8.10;99.90
13436;DHT22;6790;49.520;8.504;2022-11-20T15:20:41;8.10;99.90
13436;DHT22;6790;49.520;8.504;2022-11-20T15:23:16;8.10;99.90
13436;DHT22;6790;49.520;8.504;2022-11-20T15:25:46;8.10;99.90
13436;DHT22;6790;49.520;8.504;2022-11-20T15:30:49;8.00;99.90
13436;DHT22;6790;49.520;8.504;2022-11-20T15:33:16;8.00;99.90
13436;DHT22;6790;49.520;8.504;2022-11-20T15:35:42;7.90;99.90
13436;DHT22;6790;49.520;8.504;2022-11-20T15:38:09;7.90;99.90
13436;DHT22;6790;49.520;8.504;2022-11-20T15:40:35;7.80;99.90
13436;DHT22;6790;49.520;8.504;2022-11-20T15:43:02;7.80;99.90
13436;DHT22;6790;49.520;8.504;2022-11-20T15:48:02;7.70;99.90
13436;DHT22;6790;49.520;8.504;2022-11-20T15:50:37;7.70;99.90
13436;DHT22;6790;49.520;8.504;2022-11-20T15:53:12;7.70;99.90
13436;DHT22;6790;49.520;8.504;2022-11-20T15:55:38;7.80;99.90
13436;DHT22;6790;49.520;8.504;2022-11-20T15:58:04;7.80;99.90
13436;DHT22;6790;49.520;8.504;2022-11-20T16:00:29;7.70;99.90
13436;DHT22;6790;49.520;8.504;2022-11-20T16:02:56;7.70;99.90
13436;DHT22;6790;49.520;8.504;2022-11-20T16:05:21;7.70;99.90
13436;DHT22;6790;49.520;8.504;2022-11-20T16:07:49;7.70;99.90
13436;DHT22;6790;49.520;8.504;2022-11-20T16:10:16;7.60;99.90
13436;DHT22;6790;49.520;8.504;2022-11-20T16:12:41;7.60;99.90
13436;DHT22;6790;49.520;8.504;2022-11-20T16:15:26;7.60;99.90
13436;DHT22;6790;49.520;8.504;2022-11-20T16:18:12;7.60;99.90
13436;DHT22;6790;49.520;8.504;2022-11-20T16:20:39;7.60;99.90
13436;DHT22;6790;49.520;8.504;2022-11-20T16:23:06;7.50;99.90
13436;DHT22;6790;49.520;8.504;2022-11-20T16:25:32;7.60;99.90
13436;DHT22;6790;49.520;8.504;2022-11-20T16:27:57;7.70;99.90
13436;DHT22;6790;49.520;8.504;2022-11-20T16:30:23;7.90;99.90
13436;DHT22;6790;49.520;8.504;2022-11-20T16:32:49;7.90;99.90
13436;DHT22;6790;49.520;8.504;2022-11-20T16:35:15;7.90;99.90
13436;DHT22;6790;49.520;8.504;2022-11-20T16:37:41;7.90;99.90
13436;DHT22;6790;49.520;8.504;2022-11-20T16:40:09;8.00;99.90
13436;DHT22;6790;49.520;8.504;2022-11-20T16:42:36;7.90;99.90
13436;DHT22;6790;49.520;8.504;2022-11-20T16:45:04;8.00;99.90
13436;DHT22;6790;49.520;8.504;2022-11-20T16:47:33;8.00;99.90
13436;DHT22;6790;49.520;8.504;2022-11-20T16:50:00;8.00;99.90
13436;DHT22;6790;49.520;8.504;2022-11-20T16:52:27;8.00;99.90
13436;DHT22;6790;49.520;8.504;2022-11-20T16:54:53;7.90;99.90
13436;DHT22;6790;49.520;8.504;2022-11-20T16:57:18;7.90;99.90
13436;DHT22;6790;49.520;8.504;2022-11-20T16:59:44;8.10;99.90
13436;DHT22;6790;49.520;8.504;2022-11-20T17:02:10;8.10;99.90
13436;DHT22;6790;49.520;8.504;2022-11-20T17:04:36;8.10;99.90
13436;DHT22;6790;49.520;8.504;2022-11-20T17:07:02;8.10;99.90
13436;DHT22;6790;49.520;8.504;2022-11-20T17:09:28;8.10;99.90
13436;DHT22;6790;49.520;8.504;2022-11-20T17:11:54;8.10;99.90
13436;DHT22;6790;49.520;8.504;2022-11-20T17:14:19;8.00;99.90
13436;DHT22;6790;49.520;8.504;2022-11-20T17:16:45;8.00;99.90
13436;DHT22;6790;49.520;8.504;2022-11-20T17:19:11;8.00;99.90
13436;DHT22;6790;49.520;8.504;2022-11-20T17:21:38;8.00;99.90
13436;DHT22;6790;49.520;8.504;2022-11-20T17:24:07;8.00;99.90
13436;DHT22;6790;49.520;8.504;2022-11-20T17:26:38;8.10;99.90
13436;DHT22;6790;49.520;8.504;2022-11-20T17:29:07;8.10;99.90
13436;DHT22;6790;49.520;8.504;2022-11-20T17:31:37;8.10;99.90
13436;DHT22;6790;49.520;8.504;2022-11-20T17:34:08;8.00;99.90
13436;DHT22;6790;49.520;8.504;2022-11-20T17:36:35;8.00;99.90